NCAR-RAP Real-Time Weather Data

Output produced by METARs form (12 August 2020  18:25 UTC)
found at http://weather.rap.ucar.edu/surface/
 
KMFR 121753Z 31004KT 10SM CLR 22/05 A3000 RMK AO2 SLP149 T02170050 10222 20133 58001
KMFR 121653Z 35003KT 10SM CLR 21/04 A3000 RMK AO2 SLP149 T02060044
KMFR 121553Z 00000KT 10SM CLR 18/05 A3001 RMK AO2 SLP153 T01780050
KMFR 121453Z 01004KT 10SM CLR 15/05 A3000 RMK AO2 SLP150 T01500050 53012
KMFR 121353Z 00000KT 10SM CLR 14/04 A2999 RMK AO2 SLP144 T01440044
KMFR 121253Z 00000KT 10SM CLR 14/05 A2997 RMK AO2 SLP138 T01440050
KMFR 121153Z AUTO 00000KT 10SM CLR 16/07 A2997 RMK AO2 SLP135 T01610067 10222 20161 53006 TSNO
KMFR 121053Z AUTO 25003KT 10SM CLR 17/04 A2995 RMK AO2 SLP130 T01720044 TSNO
KMFR 120953Z AUTO 00000KT 10SM CLR 18/04 A2995 RMK AO2 SLP128 T01830044 TSNO
KMFR 120853Z AUTO 00000KT 10SM CLR 19/05 A2995 RMK AO2 SLP128 T01890050 51006
KMFR 120753Z AUTO 00000KT 10SM CLR 20/06 A2995 RMK AO2 SLP129 T02000056 403500167
KMFR 120653Z AUTO 03004KT 10SM CLR 21/06 A2994 RMK AO2 SLP126 T02060061
KMFR 120553Z AUTO 02004KT 10SM CLR 22/07 A2993 RMK AO2 SLP123 T02220072 10344 20222 51023
KMFR 120453Z AUTO 33004KT 10SM CLR 25/07 A2991 RMK AO2 SLP118 T02500067
KMFR 120353Z AUTO 03007KT 10SM CLR 26/04 A2989 RMK AO2 SLP108 T02560044
KMFR 120253Z 36010KT 10SM CLR 29/04 A2986 RMK AO2 SLP099 T02940039 53013
KMFR 120153Z 02015KT 10SM CLR 32/03 A2983 RMK AO2 SLP091 T03170028
KMFR 120053Z 35013G19KT 10SM CLR 33/02 A2982 RMK AO2 SLP086 T03330017
KMFR 112353Z 30011KT 10SM CLR 34/04 A2982 RMK AO2 SLP084 T03440044 10350 20267 56019